sensor_id;sensor_type;location;lat;lon;timestamp;P1;durP1;ratioP1;P2;durP2;ratioP2
75787;SDS011;64406;50.024;14.492;2023-05-07T00:01:50;13.07;;;8.75;;
75787;SDS011;64406;50.024;14.492;2023-05-07T00:04:15;17.35;;;9.65;;
75787;SDS011;64406;50.024;14.492;2023-05-07T00:06:41;14.43;;;9.57;;
75787;SDS011;64406;50.024;14.492;2023-05-07T00:09:07;17.73;;;9.45;;
75787;SDS011;64406;50.024;14.492;2023-05-07T00:11:33;16.20;;;9.20;;
75787;SDS011;64406;50.024;14.492;2023-05-07T00:13:59;16.85;;;9.57;;
75787;SDS011;64406;50.024;14.492;2023-05-07T00:16:25;16.85;;;9.82;;
75787;SDS011;64406;50.024;14.492;2023-05-07T00:18:51;15.75;;;9.40;;
75787;SDS011;64406;50.024;14.492;2023-05-07T00:21:17;15.43;;;9.10;;
75787;SDS011;64406;50.024;14.492;2023-05-07T00:23:43;16.10;;;9.50;;
75787;SDS011;64406;50.024;14.492;2023-05-07T00:26:08;14.90;;;9.80;;
75787;SDS011;64406;50.024;14.492;2023-05-07T00:28:34;15.80;;;9.18;;
75787;SDS011;64406;50.024;14.492;2023-05-07T00:31:00;19.50;;;9.60;;
75787;SDS011;64406;50.024;14.492;2023-05-07T00:33:25;16.48;;;9.10;;
75787;SDS011;64406;50.024;14.492;2023-05-07T00:35:52;17.13;;;8.85;;
75787;SDS011;64406;50.024;14.492;2023-05-07T00:38:19;15.70;;;9.18;;
75787;SDS011;64406;50.024;14.492;2023-05-07T00:40:45;15.45;;;9.75;;
75787;SDS011;64406;50.024;14.492;2023-05-07T00:43:11;14.73;;;8.63;;
75787;SDS011;64406;50.024;14.492;2023-05-07T00:45:37;17.25;;;9.38;;
75787;SDS011;64406;50.024;14.492;2023-05-07T00:48:04;14.82;;;9.00;;
75787;SDS011;64406;50.024;14.492;2023-05-07T00:50:30;17.92;;;8.95;;
75787;SDS011;64406;50.024;14.492;2023-05-07T00:52:57;14.60;;;8.52;;
75787;SDS011;64406;50.024;14.492;2023-05-07T00:55:24;15.55;;;8.70;;
75787;SDS011;64406;50.024;14.492;2023-05-07T00:57:50;15.85;;;8.75;;
75787;SDS011;64406;50.024;14.492;2023-05-07T01:00:16;15.25;;;8.90;;
75787;SDS011;64406;50.024;14.492;2023-05-07T01:02:43;18.30;;;8.77;;
75787;SDS011;64406;50.024;14.492;2023-05-07T01:05:09;14.07;;;8.60;;
75787;SDS011;64406;50.024;14.492;2023-05-07T01:07:39;14.82;;;8.15;;
75787;SDS011;64406;50.024;14.492;2023-05-07T01:10:07;16.60;;;9.18;;
75787;SDS011;64406;50.024;14.492;2023-05-07T01:12:35;18.25;;;9.32;;
75787;SDS011;64406;50.024;14.492;2023-05-07T01:15:02;16.10;;;8.88;;
75787;SDS011;64406;50.024;14.492;2023-05-07T01:17:32;15.48;;;8.43;;
75787;SDS011;64406;50.024;14.492;2023-05-07T01:19:59;11.93;;;7.78;;
75787;SDS011;64406;50.024;14.492;2023-05-07T01:22:29;13.20;;;7.13;;
75787;SDS011;64406;50.024;14.492;2023-05-07T01:24:57;16.42;;;8.20;;
75787;SDS011;64406;50.024;14.492;2023-05-07T01:27:25;13.80;;;7.55;;
75787;SDS011;64406;50.024;14.492;2023-05-07T01:29:50;13.77;;;8.18;;
75787;SDS011;64406;50.024;14.492;2023-05-07T01:32:17;14.70;;;7.55;;
75787;SDS011;64406;50.024;14.492;2023-05-07T01:34:53;12.80;;;7.50;;
75787;SDS011;64406;50.024;14.492;2023-05-07T01:37:20;15.98;;;8.45;;
75787;SDS011;64406;50.024;14.492;2023-05-07T01:39:47;14.75;;;8.02;;
75787;SDS011;64406;50.024;14.492;2023-05-07T01:42:13;14.77;;;8.32;;
75787;SDS011;64406;50.024;14.492;2023-05-07T01:44:39;15.90;;;8.65;;
75787;SDS011;64406;50.024;14.492;2023-05-07T01:47:06;12.07;;;7.53;;
75787;SDS011;64406;50.024;14.492;2023-05-07T01:49:32;13.27;;;7.60;;
75787;SDS011;64406;50.024;14.492;2023-05-07T01:51:58;14.25;;;7.40;;
75787;SDS011;64406;50.024;14.492;2023-05-07T01:54:27;14.15;;;8.02;;
75787;SDS011;64406;50.024;14.492;2023-05-07T01:56:53;13.35;;;7.57;;
75787;SDS011;64406;50.024;14.492;2023-05-07T01:59:20;14.68;;;7.65;;
75787;SDS011;64406;50.024;14.492;2023-05-07T02:01:46;11.95;;;7.63;;
75787;SDS011;64406;50.024;14.492;2023-05-07T02:04:12;12.88;;;7.55;;
75787;SDS011;64406;50.024;14.492;2023-05-07T02:06:38;13.25;;;7.18;;
75787;SDS011;64406;50.024;14.492;2023-05-07T02:09:04;15.77;;;8.35;;
75787;SDS011;64406;50.024;14.492;2023-05-07T02:11:30;14.00;;;8.27;;
75787;SDS011;64406;50.024;14.492;2023-05-07T02:13:55;13.48;;;7.43;;
75787;SDS011;64406;50.024;14.492;2023-05-07T02:16:21;12.82;;;8.00;;
75787;SDS011;64406;50.024;14.492;2023-05-07T02:18:48;14.90;;;8.27;;
75787;SDS011;64406;50.024;14.492;2023-05-07T02:21:14;14.27;;;7.78;;
75787;SDS011;64406;50.024;14.492;2023-05-07T02:23:39;13.98;;;8.10;;
75787;SDS011;64406;50.024;14.492;2023-05-07T02:26:05;14.15;;;7.85;;
75787;SDS011;64406;50.024;14.492;2023-05-07T02:28:31;13.73;;;7.65;;
75787;SDS011;64406;50.024;14.492;2023-05-07T02:30:56;12.27;;;7.60;;
75787;SDS011;64406;50.024;14.492;2023-05-07T02:33:23;12.75;;;7.43;;
75787;SDS011;64406;50.024;14.492;2023-05-07T02:35:49;13.75;;;7.80;;
75787;SDS011;64406;50.024;14.492;2023-05-07T02:38:17;11.93;;;7.88;;
75787;SDS011;64406;50.024;14.492;2023-05-07T02:40:43;13.02;;;7.57;;
75787;SDS011;64406;50.024;14.492;2023-05-07T02:43:09;10.98;;;6.85;;
75787;SDS011;64406;50.024;14.492;2023-05-07T02:45:34;12.18;;;6.80;;
75787;SDS011;64406;50.024;14.492;2023-05-07T02:48:02;10.02;;;6.53;;
75787;SDS011;64406;50.024;14.492;2023-05-07T02:50:29;10.75;;;6.38;;
75787;SDS011;64406;50.024;14.492;2023-05-07T02:52:54;9.30;;;5.82;;
75787;SDS011;64406;50.024;14.492;2023-05-07T02:55:20;8.75;;;5.43;;
75787;SDS011;64406;50.024;14.492;2023-05-07T02:57:46;7.75;;;5.22;;
75787;SDS011;64406;50.024;14.492;2023-05-07T03:00:17;7.93;;;5.82;;
75787;SDS011;64406;50.024;14.492;2023-05-07T03:02:46;7.78;;;5.18;;
75787;SDS011;64406;50.024;14.492;2023-05-07T03:05:12;12.80;;;6.07;;
75787;SDS011;64406;50.024;14.492;2023-05-07T03:07:39;8.90;;;5.82;;
75787;SDS011;64406;50.024;14.492;2023-05-07T03:10:06;10.15;;;5.57;;
75787;SDS011;64406;50.024;14.492;2023-05-07T03:12:32;9.18;;;5.65;;
75787;SDS011;64406;50.024;14.492;2023-05-07T03:14:57;9.45;;;5.45;;
75787;SDS011;64406;50.024;14.492;2023-05-07T03:17:23;9.10;;;5.55;;
75787;SDS011;64406;50.024;14.492;2023-05-07T03:19:49;8.68;;;5.28;;
75787;SDS011;64406;50.024;14.492;2023-05-07T03:22:14;9.48;;;5.55;;
75787;SDS011;64406;50.024;14.492;2023-05-07T03:24:40;9.65;;;5.68;;
75787;SDS011;64406;50.024;14.492;2023-05-07T03:27:05;7.63;;;5.07;;
75787;SDS011;64406;50.024;14.492;2023-05-07T03:29:31;9.35;;;6.03;;
75787;SDS011;64406;50.024;14.492;2023-05-07T03:31:57;10.68;;;6.25;;
75787;SDS011;64406;50.024;14.492;2023-05-07T03:34:22;9.07;;;5.72;;
75787;SDS011;64406;50.024;14.492;2023-05-07T03:36:48;9.45;;;6.10;;
75787;SDS011;64406;50.024;14.492;2023-05-07T03:39:14;10.27;;;5.95;;
75787;SDS011;64406;50.024;14.492;2023-05-07T03:41:40;11.95;;;7.10;;
75787;SDS011;64406;50.024;14.492;2023-05-07T03:44:06;13.77;;;7.57;;
75787;SDS011;64406;50.024;14.492;2023-05-07T03:46:32;15.20;;;8.13;;
75787;SDS011;64406;50.024;14.492;2023-05-07T03:48:58;15.57;;;8.93;;
75787;SDS011;64406;50.024;14.492;2023-05-07T03:51:24;13.32;;;7.30;;
75787;SDS011;64406;50.024;14.492;2023-05-07T03:53:51;14.20;;;7.65;;
75787;SDS011;64406;50.024;14.492;2023-05-07T03:56:22;15.55;;;7.72;;
75787;SDS011;64406;50.024;14.492;2023-05-07T03:58:52;15.45;;;8.68;;
75787;SDS011;64406;50.024;14.492;2023-05-07T04:01:17;15.13;;;8.90;;
75787;SDS011;64406;50.024;14.492;2023-05-07T04:03:43;17.55;;;8.68;;
75787;SDS011;64406;50.024;14.492;2023-05-07T04:06:09;15.77;;;8.50;;
75787;SDS011;64406;50.024;14.492;2023-05-07T04:08:34;18.13;;;9.75;;
75787;SDS011;64406;50.024;14.492;2023-05-07T04:11:00;14.07;;;7.90;;
75787;SDS011;64406;50.024;14.492;2023-05-07T04:13:26;18.67;;;9.70;;
75787;SDS011;64406;50.024;14.492;2023-05-07T04:15:52;17.35;;;9.10;;
75787;SDS011;64406;50.024;14.492;2023-05-07T04:18:18;15.60;;;8.18;;
75787;SDS011;64406;50.024;14.492;2023-05-07T04:20:43;13.77;;;8.63;;
75787;SDS011;64406;50.024;14.492;2023-05-07T04:23:09;10.68;;;6.60;;
75787;SDS011;64406;50.024;14.492;2023-05-07T04:25:35;10.60;;;6.53;;
75787;SDS011;64406;50.024;14.492;2023-05-07T04:28:01;9.75;;;6.13;;
75787;SDS011;64406;50.024;14.492;2023-05-07T04:30:26;8.07;;;5.55;;
75787;SDS011;64406;50.024;14.492;2023-05-07T04:32:52;10.00;;;6.07;;
75787;SDS011;64406;50.024;14.492;2023-05-07T04:35:18;10.70;;;6.40;;
75787;SDS011;64406;50.024;14.492;2023-05-07T04:37:44;11.85;;;7.35;;
75787;SDS011;64406;50.024;14.492;2023-05-07T04:40:09;10.35;;;5.72;;
75787;SDS011;64406;50.024;14.492;2023-05-07T04:42:36;9.20;;;5.43;;
75787;SDS011;64406;50.024;14.492;2023-05-07T04:45:01;7.07;;;4.63;;
75787;SDS011;64406;50.024;14.492;2023-05-07T04:47:28;9.18;;;5.68;;
75787;SDS011;64406;50.024;14.492;2023-05-07T04:49:53;10.15;;;5.47;;
75787;SDS011;64406;50.024;14.492;2023-05-07T04:52:19;8.35;;;5.45;;
75787;SDS011;64406;50.024;14.492;2023-05-07T04:54:45;9.70;;;5.88;;
75787;SDS011;64406;50.024;14.492;2023-05-07T04:57:11;7.75;;;5.30;;
75787;SDS011;64406;50.024;14.492;2023-05-07T04:59:36;7.00;;;5.38;;
75787;SDS011;64406;50.024;14.492;2023-05-07T05:02:02;8.57;;;5.07;;
75787;SDS011;64406;50.024;14.492;2023-05-07T05:04:29;8.45;;;5.78;;
75787;SDS011;64406;50.024;14.492;2023-05-07T05:06:55;9.75;;;6.10;;
75787;SDS011;64406;50.024;14.492;2023-05-07T05:09:21;9.48;;;5.57;;
75787;SDS011;64406;50.024;14.492;2023-05-07T05:11:47;8.05;;;5.13;;
75787;SDS011;64406;50.024;14.492;2023-05-07T05:14:12;6.45;;;4.63;;
75787;SDS011;64406;50.024;14.492;2023-05-07T05:16:38;8.52;;;5.55;;
75787;SDS011;64406;50.024;14.492;2023-05-07T05:19:03;9.65;;;5.57;;
75787;SDS011;64406;50.024;14.492;2023-05-07T05:21:29;10.32;;;6.15;;
75787;SDS011;64406;50.024;14.492;2023-05-07T05:23:56;7.85;;;5.22;;
75787;SDS011;64406;50.024;14.492;2023-05-07T05:26:21;7.40;;;4.90;;
75787;SDS011;64406;50.024;14.492;2023-05-07T05:28:47;9.38;;;5.82;;
75787;SDS011;64406;50.024;14.492;2023-05-07T05:31:13;9.35;;;5.30;;
75787;SDS011;64406;50.024;14.492;2023-05-07T05:33:39;9.23;;;5.57;;
75787;SDS011;64406;50.024;14.492;2023-05-07T05:36:05;10.70;;;6.55;;
75787;SDS011;64406;50.024;14.492;2023-05-07T05:38:31;8.88;;;6.13;;
75787;SDS011;64406;50.024;14.492;2023-05-07T05:40:57;10.15;;;6.20;;
75787;SDS011;64406;50.024;14.492;2023-05-07T05:43:22;10.73;;;6.35;;
75787;SDS011;64406;50.024;14.492;2023-05-07T05:45:48;8.63;;;5.55;;
75787;SDS011;64406;50.024;14.492;2023-05-07T05:48:14;10.30;;;5.57;;
75787;SDS011;64406;50.024;14.492;2023-05-07T05:50:41;9.95;;;6.35;;
75787;SDS011;64406;50.024;14.492;2023-05-07T05:53:07;9.45;;;5.35;;
75787;SDS011;64406;50.024;14.492;2023-05-07T05:55:33;11.73;;;6.35;;
75787;SDS011;64406;50.024;14.492;2023-05-07T05:57:59;11.23;;;6.20;;
75787;SDS011;64406;50.024;14.492;2023-05-07T06:00:26;11.48;;;5.53;;
75787;SDS011;64406;50.024;14.492;2023-05-07T06:02:52;10.32;;;5.97;;
75787;SDS011;64406;50.024;14.492;2023-05-07T06:05:17;11.23;;;5.63;;
75787;SDS011;64406;50.024;14.492;2023-05-07T06:07:43;9.88;;;5.97;;
75787;SDS011;64406;50.024;14.492;2023-05-07T06:10:09;6.88;;;5.15;;
75787;SDS011;64406;50.024;14.492;2023-05-07T06:12:35;11.00;;;5.90;;
75787;SDS011;64406;50.024;14.492;2023-05-07T06:15:00;7.35;;;5.03;;
75787;SDS011;64406;50.024;14.492;2023-05-07T06:17:26;7.03;;;4.75;;
75787;SDS011;64406;50.024;14.492;2023-05-07T06:19:54;6.75;;;4.03;;
75787;SDS011;64406;50.024;14.492;2023-05-07T06:22:20;7.15;;;4.30;;
75787;SDS011;64406;50.024;14.492;2023-05-07T06:24:45;5.95;;;4.25;;
75787;SDS011;64406;50.024;14.492;2023-05-07T06:27:11;7.22;;;4.55;;
75787;SDS011;64406;50.024;14.492;2023-05-07T06:29:37;7.47;;;4.82;;
75787;SDS011;64406;50.024;14.492;2023-05-07T06:32:06;7.80;;;5.00;;
75787;SDS011;64406;50.024;14.492;2023-05-07T06:34:35;6.68;;;4.45;;
75787;SDS011;64406;50.024;14.492;2023-05-07T06:37:01;6.63;;;4.82;;
75787;SDS011;64406;50.024;14.492;2023-05-07T06:39:27;8.13;;;5.60;;
75787;SDS011;64406;50.024;14.492;2023-05-07T06:41:53;7.68;;;4.93;;
75787;SDS011;64406;50.024;14.492;2023-05-07T06:44:19;7.40;;;4.72;;
75787;SDS011;64406;50.024;14.492;2023-05-07T06:46:45;7.00;;;4.88;;
75787;SDS011;64406;50.024;14.492;2023-05-07T06:49:12;8.98;;;5.13;;
75787;SDS011;64406;50.024;14.492;2023-05-07T06:51:38;10.65;;;5.35;;
75787;SDS011;64406;50.024;14.492;2023-05-07T06:54:04;7.28;;;4.43;;
75787;SDS011;64406;50.024;14.492;2023-05-07T06:56:30;8.70;;;5.18;;
75787;SDS011;64406;50.024;14.492;2023-05-07T06:58:56;8.40;;;5.05;;
75787;SDS011;64406;50.024;14.492;2023-05-07T07:01:21;9.75;;;5.18;;
75787;SDS011;64406;50.024;14.492;2023-05-07T07:03:47;7.32;;;4.93;;
75787;SDS011;64406;50.024;14.492;2023-05-07T07:06:13;6.65;;;4.13;;
75787;SDS011;64406;50.024;14.492;2023-05-07T07:08:39;7.20;;;4.72;;
75787;SDS011;64406;50.024;14.492;2023-05-07T07:11:07;6.68;;;4.25;;
75787;SDS011;64406;50.024;14.492;2023-05-07T07:13:34;5.13;;;3.47;;
75787;SDS011;64406;50.024;14.492;2023-05-07T07:15:59;6.82;;;4.00;;
75787;SDS011;64406;50.024;14.492;2023-05-07T07:18:26;5.38;;;3.58;;
75787;SDS011;64406;50.024;14.492;2023-05-07T07:20:52;6.45;;;3.78;;
75787;SDS011;64406;50.024;14.492;2023-05-07T07:23:18;6.70;;;4.18;;
75787;SDS011;64406;50.024;14.492;2023-05-07T07:25:43;5.28;;;3.83;;
75787;SDS011;64406;50.024;14.492;2023-05-07T07:28:09;5.95;;;4.10;;
75787;SDS011;64406;50.024;14.492;2023-05-07T07:30:36;7.03;;;4.90;;
75787;SDS011;64406;50.024;14.492;2023-05-07T07:33:02;6.40;;;4.45;;
75787;SDS011;64406;50.024;14.492;2023-05-07T07:35:29;8.02;;;4.50;;
75787;SDS011;64406;50.024;14.492;2023-05-07T07:37:55;5.60;;;3.88;;
75787;SDS011;64406;50.024;14.492;2023-05-07T07:40:21;6.13;;;4.25;;
75787;SDS011;64406;50.024;14.492;2023-05-07T07:42:47;5.82;;;4.57;;
75787;SDS011;64406;50.024;14.492;2023-05-07T07:45:12;5.65;;;4.30;;
75787;SDS011;64406;50.024;14.492;2023-05-07T07:47:38;5.22;;;3.85;;
75787;SDS011;64406;50.024;14.492;2023-05-07T07:50:05;4.82;;;3.33;;
75787;SDS011;64406;50.024;14.492;2023-05-07T07:52:31;6.05;;;4.30;;
75787;SDS011;64406;50.024;14.492;2023-05-07T07:54:57;6.20;;;4.28;;
75787;SDS011;64406;50.024;14.492;2023-05-07T07:57:23;5.03;;;3.78;;
75787;SDS011;64406;50.024;14.492;2023-05-07T07:59:49;5.35;;;3.63;;
75787;SDS011;64406;50.024;14.492;2023-05-07T08:02:15;5.03;;;3.95;;
75787;SDS011;64406;50.024;14.492;2023-05-07T08:04:42;6.15;;;4.13;;
75787;SDS011;64406;50.024;14.492;2023-05-07T08:07:11;5.28;;;4.10;;
75787;SDS011;64406;50.024;14.492;2023-05-07T08:09:37;5.32;;;4.03;;
75787;SDS011;64406;50.024;14.492;2023-05-07T08:12:03;5.60;;;3.88;;
75787;SDS011;64406;50.024;14.492;2023-05-07T08:14:30;4.30;;;3.67;;
75787;SDS011;64406;50.024;14.492;2023-05-07T08:16:56;5.30;;;3.85;;
75787;SDS011;64406;50.024;14.492;2023-05-07T08:19:21;4.47;;;3.17;;
75787;SDS011;64406;50.024;14.492;2023-05-07T08:21:48;4.47;;;3.40;;
75787;SDS011;64406;50.024;14.492;2023-05-07T08:24:17;4.80;;;3.80;;
75787;SDS011;64406;50.024;14.492;2023-05-07T08:26:43;6.03;;;4.05;;
75787;SDS011;64406;50.024;14.492;2023-05-07T08:29:09;6.07;;;4.10;;
75787;SDS011;64406;50.024;14.492;2023-05-07T08:31:35;4.80;;;4.00;;
75787;SDS011;64406;50.024;14.492;2023-05-07T08:34:00;4.90;;;3.92;;
75787;SDS011;64406;50.024;14.492;2023-05-07T08:36:26;7.20;;;4.57;;
75787;SDS011;64406;50.024;14.492;2023-05-07T08:38:53;8.68;;;4.80;;
75787;SDS011;64406;50.024;14.492;2023-05-07T08:41:20;6.22;;;4.50;;
75787;SDS011;64406;50.024;14.492;2023-05-07T08:43:49;6.78;;;4.53;;
75787;SDS011;64406;50.024;14.492;2023-05-07T08:46:19;5.93;;;4.20;;
75787;SDS011;64406;50.024;14.492;2023-05-07T08:48:49;3.58;;;3.20;;
75787;SDS011;64406;50.024;14.492;2023-05-07T08:51:17;6.07;;;3.50;;
75787;SDS011;64406;50.024;14.492;2023-05-07T08:53:43;5.47;;;2.70;;
75787;SDS011;64406;50.024;14.492;2023-05-07T08:56:10;4.55;;;3.55;;
75787;SDS011;64406;50.024;14.492;2023-05-07T08:58:36;5.63;;;3.45;;
75787;SDS011;64406;50.024;14.492;2023-05-07T09:01:07;5.57;;;3.83;;
75787;SDS011;64406;50.024;14.492;2023-05-07T09:03:34;4.10;;;3.42;;
75787;SDS011;64406;50.024;14.492;2023-05-07T09:06:00;4.78;;;3.47;;
75787;SDS011;64406;50.024;14.492;2023-05-07T09:08:26;4.78;;;3.67;;
75787;SDS011;64406;50.024;14.492;2023-05-07T09:10:54;5.82;;;3.92;;
75787;SDS011;64406;50.024;14.492;2023-05-07T09:13:20;5.15;;;3.40;;
75787;SDS011;64406;50.024;14.492;2023-05-07T09:15:46;5.30;;;3.78;;
75787;SDS011;64406;50.024;14.492;2023-05-07T09:18:14;6.97;;;4.28;;
75787;SDS011;64406;50.024;14.492;2023-05-07T09:20:40;7.50;;;4.10;;
75787;SDS011;64406;50.024;14.492;2023-05-07T09:23:06;5.97;;;3.80;;
75787;SDS011;64406;50.024;14.492;2023-05-07T09:25:33;6.38;;;4.03;;
75787;SDS011;64406;50.024;14.492;2023-05-07T09:28:00;5.57;;;3.97;;
75787;SDS011;64406;50.024;14.492;2023-05-07T09:30:28;6.22;;;3.83;;
75787;SDS011;64406;50.024;14.492;2023-05-07T09:33:01;5.40;;;4.20;;
75787;SDS011;64406;50.024;14.492;2023-05-07T09:35:28;8.02;;;4.75;;
75787;SDS011;64406;50.024;14.492;2023-05-07T09:37:55;5.45;;;4.13;;
75787;SDS011;64406;50.024;14.492;2023-05-07T09:40:22;7.32;;;4.43;;
75787;SDS011;64406;50.024;14.492;2023-05-07T09:42:49;6.18;;;3.95;;
75787;SDS011;64406;50.024;14.492;2023-05-07T09:45:28;4.82;;;3.60;;
75787;SDS011;64406;50.024;14.492;2023-05-07T09:47:56;5.80;;;3.65;;
75787;SDS011;64406;50.024;14.492;2023-05-07T09:50:26;6.72;;;4.22;;
75787;SDS011;64406;50.024;14.492;2023-05-07T09:52:54;5.97;;;3.67;;
75787;SDS011;64406;50.024;14.492;2023-05-07T09:55:21;5.63;;;4.40;;
75787;SDS011;64406;50.024;14.492;2023-05-07T09:57:51;5.07;;;3.90;;
75787;SDS011;64406;50.024;14.492;2023-05-07T10:00:18;7.05;;;3.88;;
75787;SDS011;64406;50.024;14.492;2023-05-07T10:02:47;6.93;;;3.90;;
75787;SDS011;64406;50.024;14.492;2023-05-07T10:05:15;5.68;;;3.75;;
75787;SDS011;64406;50.024;14.492;2023-05-07T10:07:41;5.53;;;3.92;;
75787;SDS011;64406;50.024;14.492;2023-05-07T10:10:08;6.32;;;4.18;;
75787;SDS011;64406;50.024;14.492;2023-05-07T10:12:36;5.05;;;3.85;;
75787;SDS011;64406;50.024;14.492;2023-05-07T10:15:08;4.90;;;3.92;;
75787;SDS011;64406;50.024;14.492;2023-05-07T10:17:38;5.82;;;4.25;;
75787;SDS011;64406;50.024;14.492;2023-05-07T10:20:05;5.82;;;3.85;;
75787;SDS011;64406;50.024;14.492;2023-05-07T10:22:33;6.30;;;4.55;;
75787;SDS011;64406;50.024;14.492;2023-05-07T10:25:04;7.10;;;4.32;;
75787;SDS011;64406;50.024;14.492;2023-05-07T10:27:34;5.05;;;4.07;;
75787;SDS011;64406;50.024;14.492;2023-05-07T10:32:48;4.38;;;2.85;;
75787;SDS011;64406;50.024;14.492;2023-05-07T10:35:26;4.90;;;3.63;;
75787;SDS011;64406;50.024;14.492;2023-05-07T10:37:57;5.03;;;3.55;;
75787;SDS011;64406;50.024;14.492;2023-05-07T10:40:22;6.28;;;3.80;;
75787;SDS011;64406;50.024;14.492;2023-05-07T10:42:57;7.47;;;3.85;;
75787;SDS011;64406;50.024;14.492;2023-05-07T10:45:28;5.95;;;4.10;;
75787;SDS011;64406;50.024;14.492;2023-05-07T10:48:07;4.80;;;3.85;;
75787;SDS011;64406;50.024;14.492;2023-05-07T10:50:36;5.68;;;3.88;;
75787;SDS011;64406;50.024;14.492;2023-05-07T10:55:47;6.10;;;3.65;;
75787;SDS011;64406;50.024;14.492;2023-05-07T10:58:29;4.60;;;3.50;;
75787;SDS011;64406;50.024;14.492;2023-05-07T11:00:58;4.82;;;3.75;;
75787;SDS011;64406;50.024;14.492;2023-05-07T11:03:26;5.70;;;4.32;;
75787;SDS011;64406;50.024;14.492;2023-05-07T11:11:18;4.65;;;3.70;;
75787;SDS011;64406;50.024;14.492;2023-05-07T11:13:47;5.28;;;4.25;;
75787;SDS011;64406;50.024;14.492;2023-05-07T11:16:21;5.30;;;3.88;;
75787;SDS011;64406;50.024;14.492;2023-05-07T11:18:49;6.35;;;4.80;;
75787;SDS011;64406;50.024;14.492;2023-05-07T11:24:07;4.40;;;3.90;;
75787;SDS011;64406;50.024;14.492;2023-05-07T11:26:48;5.20;;;3.60;;
75787;SDS011;64406;50.024;14.492;2023-05-07T11:29:18;5.65;;;4.20;;
75787;SDS011;64406;50.024;14.492;2023-05-07T11:31:51;6.75;;;4.63;;
75787;SDS011;64406;50.024;14.492;2023-05-07T11:34:25;5.93;;;4.18;;
75787;SDS011;64406;50.024;14.492;2023-05-07T11:36:52;7.30;;;4.88;;
75787;SDS011;64406;50.024;14.492;2023-05-07T11:42:01;8.40;;;5.00;;
75787;SDS011;64406;50.024;14.492;2023-05-07T11:44:45;6.88;;;5.05;;
75787;SDS011;64406;50.024;14.492;2023-05-07T11:47:19;6.38;;;5.13;;
75787;SDS011;64406;50.024;14.492;2023-05-07T11:49:49;6.28;;;4.97;;
75787;SDS011;64406;50.024;14.492;2023-05-07T11:52:16;6.07;;;4.38;;
75787;SDS011;64406;50.024;14.492;2023-05-07T11:57:15;6.10;;;4.00;;
75787;SDS011;64406;50.024;14.492;2023-05-07T11:59:41;6.65;;;5.25;;
75787;SDS011;64406;50.024;14.492;2023-05-07T12:02:09;7.45;;;5.00;;
75787;SDS011;64406;50.024;14.492;2023-05-07T12:04:36;7.40;;;5.22;;
75787;SDS011;64406;50.024;14.492;2023-05-07T12:07:03;8.48;;;4.65;;
75787;SDS011;64406;50.024;14.492;2023-05-07T12:09:32;5.03;;;3.65;;
75787;SDS011;64406;50.024;14.492;2023-05-07T12:12:05;6.43;;;4.38;;
75787;SDS011;64406;50.024;14.492;2023-05-07T12:14:31;3.83;;;3.20;;
75787;SDS011;64406;50.024;14.492;2023-05-07T12:17:01;3.80;;;2.97;;
75787;SDS011;64406;50.024;14.492;2023-05-07T12:19:28;4.35;;;3.00;;
75787;SDS011;64406;50.024;14.492;2023-05-07T12:21:55;3.75;;;3.10;;
75787;SDS011;64406;50.024;14.492;2023-05-07T12:24:22;3.97;;;3.30;;
75787;SDS011;64406;50.024;14.492;2023-05-07T12:26:48;3.83;;;3.13;;
75787;SDS011;64406;50.024;14.492;2023-05-07T12:29:14;3.75;;;3.35;;
75787;SDS011;64406;50.024;14.492;2023-05-07T12:31:43;4.15;;;3.05;;
75787;SDS011;64406;50.024;14.492;2023-05-07T12:34:12;3.45;;;3.15;;
75787;SDS011;64406;50.024;14.492;2023-05-07T12:36:38;4.95;;;3.45;;
75787;SDS011;64406;50.024;14.492;2023-05-07T12:39:07;3.72;;;3.10;;
75787;SDS011;64406;50.024;14.492;2023-05-07T12:41:55;4.23;;;3.23;;
75787;SDS011;64406;50.024;14.492;2023-05-07T12:44:24;3.78;;;3.38;;
75787;SDS011;64406;50.024;14.492;2023-05-07T12:46:51;4.05;;;3.15;;
75787;SDS011;64406;50.024;14.492;2023-05-07T12:49:17;3.97;;;2.92;;
75787;SDS011;64406;50.024;14.492;2023-05-07T12:51:46;4.38;;;3.88;;
75787;SDS011;64406;50.024;14.492;2023-05-07T12:54:27;4.65;;;2.83;;
75787;SDS011;64406;50.024;14.492;2023-05-07T12:57:00;3.70;;;3.17;;
75787;SDS011;64406;50.024;14.492;2023-05-07T12:59:31;5.47;;;3.30;;
75787;SDS011;64406;50.024;14.492;2023-05-07T13:01:57;3.80;;;3.15;;
75787;SDS011;64406;50.024;14.492;2023-05-07T13:04:24;4.00;;;3.60;;
75787;SDS011;64406;50.024;14.492;2023-05-07T13:06:50;4.57;;;3.45;;
75787;SDS011;64406;50.024;14.492;2023-05-07T13:09:15;3.42;;;3.13;;
75787;SDS011;64406;50.024;14.492;2023-05-07T13:11:41;3.80;;;3.47;;
75787;SDS011;64406;50.024;14.492;2023-05-07T13:14:07;3.83;;;3.53;;
75787;SDS011;64406;50.024;14.492;2023-05-07T13:16:33;3.47;;;3.10;;
75787;SDS011;64406;50.024;14.492;2023-05-07T13:18:58;5.22;;;3.38;;
75787;SDS011;64406;50.024;14.492;2023-05-07T13:21:24;3.35;;;3.03;;
75787;SDS011;64406;50.024;14.492;2023-05-07T13:23:50;3.45;;;3.00;;
75787;SDS011;64406;50.024;14.492;2023-05-07T13:26:16;3.45;;;3.15;;
75787;SDS011;64406;50.024;14.492;2023-05-07T13:28:41;3.63;;;3.33;;
75787;SDS011;64406;50.024;14.492;2023-05-07T13:31:08;4.22;;;3.38;;
75787;SDS011;64406;50.024;14.492;2023-05-07T13:33:34;3.83;;;3.22;;
75787;SDS011;64406;50.024;14.492;2023-05-07T13:36:01;4.25;;;3.40;;
75787;SDS011;64406;50.024;14.492;2023-05-07T13:38:29;3.63;;;3.03;;
75787;SDS011;64406;50.024;14.492;2023-05-07T13:40:55;3.70;;;3.30;;
75787;SDS011;64406;50.024;14.492;2023-05-07T13:43:21;3.90;;;3.47;;
75787;SDS011;64406;50.024;14.492;2023-05-07T13:45:46;4.05;;;3.65;;
75787;SDS011;64406;50.024;14.492;2023-05-07T13:48:12;3.72;;;3.25;;
75787;SDS011;64406;50.024;14.492;2023-05-07T13:50:37;4.55;;;3.65;;
75787;SDS011;64406;50.024;14.492;2023-05-07T13:53:03;4.97;;;3.75;;
75787;SDS011;64406;50.024;14.492;2023-05-07T13:55:29;4.40;;;3.95;;
75787;SDS011;64406;50.024;14.492;2023-05-07T13:57:55;4.43;;;4.03;;
75787;SDS011;64406;50.024;14.492;2023-05-07T14:00:23;6.30;;;4.00;;
75787;SDS011;64406;50.024;14.492;2023-05-07T14:02:48;3.72;;;3.42;;
75787;SDS011;64406;50.024;14.492;2023-05-07T14:05:14;4.35;;;3.70;;
75787;SDS011;64406;50.024;14.492;2023-05-07T14:07:40;3.88;;;3.28;;
75787;SDS011;64406;50.024;14.492;2023-05-07T14:10:05;3.78;;;3.30;;
75787;SDS011;64406;50.024;14.492;2023-05-07T14:12:32;3.80;;;3.38;;
75787;SDS011;64406;50.024;14.492;2023-05-07T14:14:58;4.05;;;3.60;;
75787;SDS011;64406;50.024;14.492;2023-05-07T14:17:24;3.83;;;3.47;;
75787;SDS011;64406;50.024;14.492;2023-05-07T14:19:51;3.85;;;3.45;;
75787;SDS011;64406;50.024;14.492;2023-05-07T14:22:19;5.30;;;4.22;;
75787;SDS011;64406;50.024;14.492;2023-05-07T14:24:48;4.60;;;4.20;;
75787;SDS011;64406;50.024;14.492;2023-05-07T14:27:14;4.57;;;4.07;;
75787;SDS011;64406;50.024;14.492;2023-05-07T14:29:40;6.45;;;4.78;;
75787;SDS011;64406;50.024;14.492;2023-05-07T14:32:07;6.38;;;4.57;;
75787;SDS011;64406;50.024;14.492;2023-05-07T14:34:33;5.13;;;4.63;;
75787;SDS011;64406;50.024;14.492;2023-05-07T14:36:59;5.85;;;5.22;;
75787;SDS011;64406;50.024;14.492;2023-05-07T14:39:25;4.65;;;4.15;;
75787;SDS011;64406;50.024;14.492;2023-05-07T14:41:51;5.70;;;4.13;;
75787;SDS011;64406;50.024;14.492;2023-05-07T14:44:17;4.93;;;4.20;;
75787;SDS011;64406;50.024;14.492;2023-05-07T14:46:42;5.10;;;4.57;;
75787;SDS011;64406;50.024;14.492;2023-05-07T14:49:08;4.75;;;4.35;;